x

Cape Elizabeth- 45nm Nw Of Aberdeen, Wa (46041) Wave Buoy

8:50pm - Wed 18th Jan 2017 All times are PST. -8 hours from GMT.

  • Sig Wave height 12.8ft
  • Swell Direction
  • Peak Period 13s
  • Average Period 9s
  • Wind
    16mph, 20mph gusts
  • Sea Temp 50°f
  • Air Temp 50°f
  • Sea Pressure 989.5mb
  • Cape Elizabeth- 45nm Nw Of Aberdeen, Wa
  • Cape Elizabeth- 45nm Nw Of Aberdeen, Wa

More Historic Weather Station data

Upgrade to MSW Pro to gain access to the past 30 days of data for over 8000 Wavebouys and Weather Stations around the globe.

Join Pro

Comparision Forecast

View Surf forecast
   
Wed 01/18 8:50pm 13ft 13s 9s 16 20 mph 989.5mb 50f 50f
7:50pm 13ft 12s 9s 16 18 mph 988.8mb 50f 50f
6:50pm 15ft 12s 9s 18 27 mph 988.2mb 49f 49f
5:50pm 16ft 13s 9s 13 18 mph 987.9mb 50f 50f
4:50pm 16.5ft 13s 9s 16 18 mph 988.4mb 49f 50f
3:50pm 18.5ft 13s 9s 20 22 mph 989.1mb 50f 50f
2:50pm 18ft 13s 9s 18 22 mph 989.1mb 50f 51f
1:50pm 15.5ft 14s 8s 20 29 mph 990mb 50f 51f
12:50pm 19ft 12s 9s 25 34 mph 990.1mb 49f 52f
11:50am 20ft 13s 9s 25 29 mph 989.8mb 49f 52f
10:50am 19.5ft 13s 8s 31 38 mph 989.5mb 50f 52f
9:50am 24.5ft 13s 9s 31 38 mph 988.8mb 50f 52f
8:50am 20.5ft 13s 8s 34 40 mph 988.1mb 50f 52f
7:50am 21.5ft 13s 9s 38 47 mph 986.4mb 49f 52f
6:50am 18.5ft 11s 8s 31 40 mph 986.7mb 49f 51f
5:50am 18.5ft 13s 9s 31 40 mph 987.5mb 47f 51f
4:50am 16.5ft 12s 8s 29 34 mph 989.4mb 46f 50f
3:50am 17.5ft 11s 9s 27 34 mph 990.7mb 47f 50f
2:50am 21ft 12s 9s 22 29 mph 992.1mb 47f 50f
1:50am 20.5ft 11s 9s 29 34 mph 993.1mb 47f 51f
12:50am 17.5ft 13s 8s 29 36 mph 993.2mb 48f 51f
Tue 01/17 11:50pm 22.5ft 12s 9s 29 38 mph 994.1mb 48f 51f
10:50pm 21.5ft 11s 9s 29 36 mph 993.7mb 49f 51f
9:50pm 21.5ft 11s 9s 31 38 mph 994.4mb 48f 51f
8:50pm 19.5ft 11s 8s 31 38 mph 993.8mb 49f 51f
7:50pm 22ft 11s 9s 34 40 mph 993.3mb 49f 51f
6:50pm 21ft 11s 9s 36 45 mph 993.5mb 49f 50f
5:50pm 20ft 10s 8s 38 47 mph 993.2mb 49f 51f
4:50pm 18.5ft 14s 8s 34 45 mph 993.6mb 49f 50f
3:50pm 19.5ft 14s 9s 34 43 mph 994.5mb 48f 49f
2:50pm 18.5ft 12s 8s 36 45 mph 995.4mb 48f 48f
1:50pm 17.5ft 14s 8s 34 40 mph 997.5mb 49f 48f
12:50pm 18ft 11s 8s 34 40 mph 999.7mb 48f 48f
11:50am 17ft 16s 8s 31 38 mph 1001.5mb 48f 48f
10:50am 16.5ft 14s 8s 31 40 mph 1002.7mb 48f 49f
9:50am 16ft 16s 8s 29 38 mph 1003.3mb 48f 48f
8:50am 16ft 15s 8s 29 36 mph 1002.8mb 49f 49f
7:50am 14ft 17s 8s 31 38 mph 1003.1mb 48f 48f
6:50am 15ft 16s 8s 29 36 mph 1003.3mb 47f 47f
5:50am 12ft 17s 7s 31 38 mph 1004mb 47f 48f
4:50am 12.5ft 14s 7s 29 36 mph 1005.4mb 47f 48f
3:50am 11ft 16s 7s 31 40 mph 1006.3mb 46f 48f
2:50am 10ft 16s 7s 27 31 mph 1007.5mb 47f 47f
1:50am 10ft 16s 7s 25 34 mph 1008.8mb 46f 47f
12:50am 9ft 17s 7s 25 31 mph 1009.5mb 46f 48f
Mon 01/16 11:50pm 8.5ft 17s 6s 25 29 mph 1009.9mb 46f 48f
10:50pm 7.5ft 13s 6s 25 31 mph 1010.1mb 46f 48f
9:50pm 7ft 12s 6s 29 34 mph 1010.5mb 46f 48f
8:50pm 7.5ft 14s 6s 25 29 mph 1011.5mb 46f 47f
7:50pm 6ft 13s 6s 25 31 mph 1012.5mb 46f 48f
6:50pm 6ft 13s 6s 22 27 mph 1013.3mb 46f 47f
5:50pm 6ft 14s 7s 20 25 mph 1013.9mb 46f 47f
4:50pm 6ft 14s 7s 20 22 mph 1014.2mb 46f 48f
3:50pm 6ft 14s 7s 20 25 mph 1014.1mb 45f 47f
2:50pm 6ft 14s 6s 20 22 mph 1014.8mb 45f 47f
1:50pm 7ft 14s 7s 20 27 mph 1015.4mb 45f 46f
12:50pm 6.5ft 14s 7s 22 27 mph 1016.6mb 46f 45f
11:50am 6.5ft 15s 7s 18 22 mph 1018.5mb 45f 44f
10:50am 6ft 13s 7s 20 22 mph 1019mb 45f 43f
9:50am 7ft 14s 8s 18 22 mph 1019.8mb 45f 43f
8:50am 6ft 13s 7s 18 22 mph 1019.9mb 45f 43f
7:50am 7ft 14s 7s 20 25 mph 1019.5mb 45f 43f
6:50am 7ft 15s 7s 20 25 mph 1019.9mb 45f 43f
5:50am 7ft 15s 8s 18 22 mph 1020.9mb 45f 43f
4:50am 7.5ft 15s 8s 18 22 mph 1021.2mb 45f 43f
3:50am 7ft 15s 8s 16 20 mph 1022mb 45f 43f
2:50am 8ft 15s 9s 13 18 mph 1023mb 45f 43f
1:50am 8ft 15s 9s 16 20 mph 1022.6mb 45f 43f
12:50am 8ft 14s 9s 16 18 mph 1023.2mb 45f 42f
Sun 01/15 11:50pm 8ft 15s 9s 18 22 mph 1022.9mb 45f 42f
10:50pm 8ft 16s 9s 16 22 mph 1023.5mb 45f 43f
9:50pm 8.5ft 16s 10s 13 18 mph 1024.4mb 45f 43f
8:50pm 10ft 16s 11s 11 13 mph 1024.8mb 45f 44f
7:50pm 9ft 16s 11s 11 16 mph 1024.6mb 45f 45f
6:50pm 9ft 16s 11s 7 9 mph 1024.4mb 45f 45f
5:50pm 8ft 16s 11s 11 16 mph 1023.4mb 46f 44f
4:50pm 8ft 17s 11s 9 11 mph 1023.8mb 46f 43f
3:50pm 8ft 12s 10s 2 4 mph 1025.3mb 46f 43f
2:50pm 8ft 17s 11s 2 7 mph 1024.8mb 46f 42f
1:50pm 7.5ft 17s 10s 4 7 mph 1024.6mb 46f 42f
12:50pm 6.5ft 17s 9s 4 7 mph 1025mb 46f 42f
11:50am 7ft 17s 9s 9 11 mph 1025mb 46f 41f
10:50am 7ft 17s 9s 11 13 mph 1025.4mb 46f 41f
9:50am 6ft 17s 9s 13 18 mph 1025mb 46f 41f
8:50am 6ft 17s 9s 13 16 mph 1025mb 45f 41f
7:50am 5.5ft 19s 8s 13 18 mph 1025mb 45f 41f
6:50am 6ft 19s 8s 13 18 mph 1024.9mb 45f 40f